KESC/ESC METAR and TAF weather

Enter ICAO airport designator
Station Type Date Time Source
KESC METAR 2021/01/20 21:56 UTC NOAA

KESC 202156Z AUTO 21019G25KT 10SM FEW022 SCT120 M04/M08 A2960 RMK AO2 PK WND 21026/2137 SLP038 T10441083 FZRANO


Station Type Date Time Source
KESC Decoded METAR 2021/01/20 21:56 UTC NOAA

Escanaba, MI, United States (KESC) 45-45N 087-02W 187M
Jan 20, 2021 - 04:56 PM EST / 2021.01.20 2156 UTC
Wind: from the SSW (210 degrees) at 22 MPH (19 KT) gusting to 29 MPH (25 KT):0
Visibility: 10 mile(s):0
Sky conditions: partly cloudy
Temperature: 24.1 F (-4.4 C)
Windchill: 8 F (-13 C):1
Dew Point: 17.1 F (-8.3 C)
Relative Humidity: 74%
Pressure (altimeter): 29.6 in. Hg (1002 hPa)
ob: KESC 202156Z AUTO 21019G25KT 10SM FEW022 SCT120 M04/M08 A2960 RMK AO2 PK WND 21026/2137 SLP038 T10441083 FZRANO
cycle: 22

Station Type Date Time Source
KESC TAF UTC NOAA

Error!

Example: see airport list